Friday, May 25, 2018, 7:14 PM CDT
Back to Local

KJOT, Joliet, Joliet Regional Airport

Location: Joliet, IL, United States Lat: 41.518
Local Time: 7:14 PM CDT ( 0:14 GMT) Lon: -88.175
Time Zone: US/Central Elev: 580 ft

Show me the last for .
Show Coded

Time T Td Feel RH Dir Speed Gust Alt SLP Vis Weather Sky Remarks
2018-05-25 18:55 79 66 82 63 - Calm - 29.79 - 10 CLR 6-hr Min Temp (7pm): 78.8°F
6-hr Max Temp (7pm): 90.5°F
2018-05-25 18:35 79 65 81 63 250° 6 - 29.80 - 10 CLR None
2018-05-25 18:15 79 65 81 61 270° 5 - 29.79 - 10 CLR None
2018-05-25 17:55 81 64 83 55 250° 9 - 29.79 - 10 SCT110 None
2018-05-25 17:35 81 64 83 57 280° 5 - 29.79 - 10 OVC100 None
2018-05-25 17:15 82 64 83 54 310° 8 18 29.79 - 10 SCT085 OVC100 None
2018-05-25 16:55 85 65 88 49 220° 12 25 29.80 - 10 BKN085 None
2018-05-25 16:35 88 61 89 41 200° 3 - 29.80 - 10 CLR None
2018-05-25 16:15 88 61 89 40 - Calm - 29.81 - 10 CLR None
2018-05-25 15:55 88 60 - 38 200° 5 - 29.81 - 10 SCT080 None
2018-05-25 15:35 89 62 90 40 170° 6 - 29.81 - 10 SCT080 None
2018-05-25 15:15 91 59 - 34 210° 5 - 29.82 - 10 CLR None
2018-05-25 14:55 90 60 - 35 200° 5 - 29.84 - 10 CLR None
2018-05-25 14:35 89 60 - 37 200° 5 - 29.84 - 10 SCT085 None
2018-05-25 14:15 89 59 - 36 210° 7 - 29.86 - 10 SCT070 SCT085 None
2018-05-25 13:55 89 58 - 35 230° 7 - 29.86 - 10 SCT070 None
2018-05-25 13:35 89 60 - 37 240° 7 - 29.87 - 10 SCT070 None
2018-05-25 13:15 89 60 - 38 240° 5 - 29.88 - 10 CLR None
2018-05-25 12:55 88 61 89 41 190° 7 - 29.89 - 10 CLR 6-hr Min Temp (1pm): 68.5°F
6-hr Max Temp (1pm): 88.5°F
2018-05-25 12:35 87 61 88 42 180° 10 18 29.90 - 10 SCT065 None
2018-05-25 12:15 87 62 88 42 230° 6 - 29.91 - 10 SCT065 SCT075 SCT085 None
2018-05-25 11:55 87 63 89 44 200° 8 - 29.92 - 10 SCT065 SCT075 SCT085 None
2018-05-25 11:35 86 61 87 42 210° 7 - 29.92 - 10 CLR None
2018-05-25 11:15 86 60 87 42 240° 9 - 29.93 - 10 CLR None
2018-05-25 10:55 85 64 87 50 190° 7 - 29.93 - 10 CLR None
2018-05-25 10:35 84 62 85 47 200° 7 - 29.93 - 10 CLR None
2018-05-25 10:15 83 62 85 48 210° 6 - 29.94 - 10 CLR None
2018-05-25 09:55 83 61 84 48 220° 3 - 29.94 - 10 CLR None
2018-05-25 09:35 81 61 82 51 220° 6 - 29.95 - 10 CLR None
2018-05-25 09:15 80 60 81 50 230° 5 - 29.96 - 10 CLR None
2018-05-25 08:55 78 62 80 56 210° 5 - 29.96 - 10 CLR None
2018-05-25 08:35 76 61 79 58 200° 5 - 29.96 - 10 CLR None
2018-05-25 08:15 75 61 78 62 190° 5 - 29.97 - 10 CLR None
2018-05-25 07:55 73 60 77 63 190° 5 - 29.97 - 10 CLR None
2018-05-25 07:35 72 60 76 67 180° 3 - 29.97 - 10 CLR None
2018-05-25 07:15 70 60 - 71 170° 3 - 29.97 - 10 CLR None
2018-05-25 06:55 68 61 - 77 - Calm - 29.97 - 10 CLR 6-hr Min Temp (7am): 59.9°F
6-hr Max Temp (7am): 68.2°F
2018-05-25 06:35 65 60 - 83 - Calm - 29.97 - 10 CLR None
2018-05-25 06:15 62 59 - 88 - Calm - 29.97 - 10 CLR None
2018-05-25 05:55 61 58 - 89 - Calm - 29.97 - 10 CLR None
2018-05-25 05:35 61 58 - 90 - Calm - 29.97 - 10 CLR None
2018-05-25 05:15 62 58 - 88 - Calm - 29.97 - 10 CLR None
2018-05-25 04:55 62 57 - 83 - Calm - 29.97 - 10 CLR None
2018-05-25 04:35 65 56 - 74 - Calm - 29.98 - 10 CLR None
2018-05-25 04:15 67 55 - 67 160° 3 - 29.98 - 10 CLR None
2018-05-25 03:55 64 56 - 76 160° 3 - 29.99 - 10 CLR None
2018-05-25 03:35 64 56 - 74 160° 3 - 30.00 - 10 CLR None
2018-05-25 03:15 66 55 - 67 - Calm - 30.00 - 10 CLR None
2018-05-25 02:55 64 55 - 71 150° 3 - 30.00 - 10 CLR None
2018-05-25 02:35 62 55 - 77 - Calm - 30.00 - 10 CLR None
2018-05-25 02:15 62 56 - 82 - Calm - 30.00 - 10 CLR None
2018-05-25 01:55 63 56 - 78 - Calm - 30.01 - 10 CLR None
2018-05-25 01:35 63 57 - 81 - Calm - 30.02 - 10 CLR None
2018-05-25 01:15 63 57 - 80 - Calm - 30.02 - 10 CLR None
2018-05-25 00:55 65 56 - 70 - Calm - 30.02 - 10 CLR 6-hr Min Temp (1am): 64.8°F
6-hr Max Temp (1am): 84.7°F
24-hr Min Temp (1am): 54.9°F
24-hr Max Temp (1am): 87.6°F
2018-05-25 00:35 65 56 - 71 - Calm - 30.03 - 10 CLR None
2018-05-25 00:15 67 55 - 65 - Calm - 30.03 - 10 CLR None
2018-05-24 23:55 68 58 - 69 - Calm - 30.03 - 10 CLR None
2018-05-24 23:35 72 53 76 51 - Calm - 30.03 - 10 CLR None
2018-05-24 23:15 73 54 76 51 150° 3 - 30.03 - 10 CLR None
2018-05-24 22:55 72 56 76 57 - Calm - 30.03 - 10 CLR None
2018-05-24 22:35 72 56 76 56 140° 3 - 30.03 - 10 CLR None
2018-05-24 22:15 74 56 77 53 140° 3 - 30.04 - 10 CLR None
2018-05-24 21:55 76 56 78 49 140° 3 - 30.04 - 10 CLR None
2018-05-24 21:35 74 58 77 56 140° 3 - 30.03 - 10 CLR None
2018-05-24 21:15 74 60 77 61 120° 3 - 30.03 - 10 CLR None
2018-05-24 20:55 72 61 76 69 110° 3 - 30.02 - 10 CLR None
2018-05-24 20:35 73 63 77 70 - Calm - 30.03 - 10 CLR None
2018-05-24 20:15 76 62 78 63 - Calm - 30.02 - 10 CLR None
2018-05-24 19:55 77 64 79 63 - Calm - 30.02 - 10 CLR None
2018-05-24 19:35 83 62 84 49 - Calm - 30.02 - 10 CLR None
2018-05-24 19:15 84 60 85 44 - Calm - 30.02 - 10 CLR None

Support USWX by starting your Amazon purchase here.